首页
METAR-TAF:

METAR-TAF

机场 :

伊利, 科羅拉多州, 美国

纬度: 40-00-37N, 经度: 105-02-53W, 海拔: 1564米

当前天气观测

该预报发布于15分钟前的15:18 UTC
静风
温度 16°C
湿度 77%
气压 1021 hPa
能見度: 16.1公里
阴天层高于2700英尺

METAR: KEIK 181518Z AUTO 00000KT 10SM OVC027 16/12 A3016 RMK AO2 T01610122

时间: 09:33 (15:33 UTC)


TAF: 丢失

超过4000个机场的气象观测和天气预报(METAR&TAF报告)。

可查询的气象台以黄色和红色小点在地图上表示。

将鼠标移到小点上方,可查看气象台名称。

然后点击查看天气观测和预报。

如需切换地图:点击带黑十字的绿色按钮放大地图;点击带横线的绿色按钮缩小地图;或者点击绿色箭头查看邻近地区的地图。


METAR-TAF: